createdAt,value
2022-08-07T00:01:44.148Z,76.86
2022-08-07T00:04:03.582Z,75.93
2022-08-07T00:06:33.391Z,75.48
2022-08-07T00:09:16.217Z,75.69
2022-08-07T00:11:54.465Z,75.68
2022-08-07T00:14:30.377Z,76.48
2022-08-07T00:16:59.297Z,76.28
2022-08-07T00:19:34.263Z,76.37
2022-08-07T00:22:24.610Z,76.45
2022-08-07T00:25:05.074Z,77.27
2022-08-07T00:27:51.678Z,76.76
2022-08-07T00:30:27.067Z,76.36
2022-08-07T00:32:56.822Z,76.24
2022-08-07T00:35:25.929Z,75.94
2022-08-07T00:37:54.847Z,75.88
2022-08-07T00:40:36.682Z,76.08
2022-08-07T00:43:10.583Z,75.61
2022-08-07T00:45:59.526Z,75.56
2022-08-07T00:48:31.997Z,76.17
2022-08-07T00:51:01.359Z,75.22
2022-08-07T00:53:39.378Z,75.19
2022-08-07T00:56:17.806Z,75.65
2022-08-07T00:58:49.801Z,75.63
2022-08-07T01:01:21.294Z,75.61
2022-08-07T01:03:56.659Z,75.95
2022-08-07T01:06:28.678Z,76.10
2022-08-07T01:08:59.372Z,76.53
2022-08-07T01:12:09.881Z,76.36
2022-08-07T01:14:21.200Z,76.02
2022-08-07T01:16:58.596Z,75.99
2022-08-07T01:19:32.150Z,75.51
2022-08-07T01:22:03.836Z,74.76
2022-08-07T01:24:37.456Z,75.16
2022-08-07T01:27:06.429Z,75.10
2022-08-07T01:29:48.410Z,74.78
2022-08-07T01:32:19.128Z,74.98
2022-08-07T01:34:51.320Z,74.46
2022-08-07T01:37:21.062Z,74.64
2022-08-07T01:39:50.241Z,75.04
2022-08-07T01:42:38.433Z,74.51
2022-08-07T01:45:09.987Z,74.63
2022-08-07T01:48:20.223Z,74.41
2022-08-07T01:50:33.708Z,75.09
2022-08-07T01:53:08.945Z,75.03
2022-08-07T01:55:42.553Z,74.68
2022-08-07T01:58:27.755Z,75.14
2022-08-07T02:01:10.385Z,75.42
2022-08-07T02:03:58.013Z,75.41
2022-08-07T02:06:30.722Z,75.64
2022-08-07T02:09:04.455Z,74.70
2022-08-07T02:12:03.075Z,74.94
2022-08-07T02:14:40.226Z,75.44
2022-08-07T02:17:09.476Z,75.31
2022-08-07T02:20:04.156Z,75.62
2022-08-07T02:22:30.417Z,75.53
2022-08-07T02:25:00.810Z,75.48
2022-08-07T02:27:34.754Z,75.41
2022-08-07T02:30:06.411Z,74.78
2022-08-07T02:32:39.633Z,74.88
2022-08-07T02:36:28.378Z,75.77
2022-08-07T02:38:17.286Z,75.98
2022-08-07T02:40:55.666Z,75.47
2022-08-07T02:43:24.490Z,74.74
2022-08-07T02:46:02.155Z,75.11
2022-08-07T02:48:30.934Z,75.54
2022-08-07T02:51:04.296Z,74.73
2022-08-07T02:53:38.526Z,74.00
2022-08-07T02:56:21.210Z,73.84
2022-08-07T02:58:54.073Z,73.90
2022-08-07T03:01:35.323Z,74.39
2022-08-07T03:04:12.227Z,74.33
2022-08-07T03:06:44.859Z,74.99
2022-08-07T03:09:14.772Z,75.49
2022-08-07T03:12:06.631Z,75.18
2022-08-07T03:14:37.341Z,73.97
2022-08-07T03:17:08.648Z,73.85
2022-08-07T03:19:37.575Z,74.71
2022-08-07T03:22:07.169Z,74.77
2022-08-07T03:24:36.724Z,75.19
2022-08-07T03:27:09.278Z,75.08
2022-08-07T03:29:49.305Z,75.43
2022-08-07T03:32:20.274Z,75.71
2022-08-07T03:35:00.870Z,75.45
2022-08-07T03:37:46.114Z,75.56
2022-08-07T03:40:22.430Z,76.24
2022-08-07T03:42:52.958Z,76.64
2022-08-07T03:45:30.886Z,76.82
2022-08-07T03:48:00.899Z,76.46
2022-08-07T03:50:30.249Z,76.37
2022-08-07T03:53:00.587Z,76.01
2022-08-07T03:55:53.034Z,76.43
2022-08-07T03:59:05.270Z,75.78
2022-08-07T04:01:13.879Z,75.90
2022-08-07T04:03:49.784Z,76.23
2022-08-07T04:06:37.810Z,76.25
2022-08-07T04:09:15.511Z,76.27
2022-08-07T04:12:25.607Z,76.24
2022-08-07T04:14:43.950Z,76.57
2022-08-07T04:17:19.979Z,76.25
2022-08-07T04:19:52.066Z,75.76
2022-08-07T04:22:22.975Z,75.95
2022-08-07T04:24:52.085Z,75.54
2022-08-07T04:27:25.856Z,75.08
2022-08-07T04:30:01.990Z,74.76
2022-08-07T04:32:34.475Z,74.18
2022-08-07T04:35:05.592Z,74.08
2022-08-07T04:37:40.400Z,74.50
2022-08-07T04:40:29.644Z,73.18
2022-08-07T04:43:02.199Z,73.08
2022-08-07T04:45:57.784Z,72.83
2022-08-07T04:48:36.781Z,72.47
2022-08-07T04:51:10.907Z,72.99
2022-08-07T04:54:05.759Z,73.75
2022-08-07T04:58:15.330Z,73.72
2022-08-07T05:00:12.874Z,73.71
2022-08-07T05:02:43.408Z,73.60
2022-08-07T05:05:52.904Z,74.29
2022-08-07T05:08:13.891Z,73.91
2022-08-07T05:10:48.640Z,74.58
2022-08-07T05:14:55.448Z,74.30
2022-08-07T05:16:11.586Z,74.34
2022-08-07T05:18:48.489Z,74.81
2022-08-07T05:21:59.055Z,74.93
2022-08-07T05:24:13.386Z,75.06
2022-08-07T05:26:42.953Z,74.56
2022-08-07T05:29:17.890Z,74.24
2022-08-07T05:31:52.869Z,73.88
2022-08-07T05:34:26.291Z,74.19
2022-08-07T05:36:57.835Z,74.03
2022-08-07T05:40:14.346Z,73.99
2022-08-07T05:42:15.866Z,73.71
2022-08-07T05:45:14.210Z,74.32
2022-08-07T05:48:02.191Z,73.80
2022-08-07T05:50:34.871Z,73.17
2022-08-07T05:53:07.826Z,72.81
2022-08-07T05:56:03.212Z,71.85
2022-08-07T05:58:36.605Z,71.99
2022-08-07T06:01:08.427Z,71.69
2022-08-07T06:03:57.223Z,70.81
2022-08-07T06:06:32.366Z,70.03
2022-08-07T06:09:04.648Z,69.53
2022-08-07T06:11:34.158Z,69.28
2022-08-07T06:14:12.684Z,69.12
2022-08-07T06:16:50.774Z,68.78
2022-08-07T06:19:52.130Z,68.65
2022-08-07T06:22:23.753Z,67.92
2022-08-07T06:24:58.029Z,67.25
2022-08-07T06:28:00.702Z,66.27
2022-08-07T06:30:25.964Z,64.56
2022-08-07T06:33:05.566Z,64.10
2022-08-07T06:35:47.998Z,63.61
2022-08-07T06:38:35.855Z,62.11
2022-08-07T06:41:09.803Z,61.82
2022-08-07T06:43:46.179Z,60.84
2022-08-07T06:46:31.223Z,61.33
2022-08-07T06:49:04.033Z,60.21
2022-08-07T06:51:36.080Z,57.72
2022-08-07T06:55:31.568Z,57.53
2022-08-07T06:57:10.439Z,57.31
2022-08-07T07:00:11.806Z,57.01
2022-08-07T07:02:53.857Z,57.26
2022-08-07T07:06:03.947Z,56.64
2022-08-07T07:08:18.831Z,56.47
2022-08-07T07:10:57.319Z,55.34
2022-08-07T07:13:55.959Z,55.38
2022-08-07T07:16:27.549Z,54.72
2022-08-07T07:19:11.107Z,54.86
2022-08-07T07:22:05.122Z,54.92
2022-08-07T07:24:31.094Z,54.58
2022-08-07T07:27:05.421Z,54.23
2022-08-07T07:30:09.182Z,54.08
2022-08-07T07:32:30.280Z,54.30
2022-08-07T07:35:03.878Z,54.47
2022-08-07T07:37:45.116Z,54.13
2022-08-07T07:40:20.091Z,53.44
2022-08-07T07:42:54.143Z,53.43
2022-08-07T07:46:37.523Z,50.86
2022-08-07T07:48:34.753Z,51.42
2022-08-07T07:51:08.004Z,52.06
2022-08-07T07:53:51.221Z,50.47
2022-08-07T07:56:29.938Z,50.86
2022-08-07T07:59:02.944Z,50.41
2022-08-07T08:02:02.379Z,51.04
2022-08-07T08:04:25.743Z,50.81
2022-08-07T08:06:55.277Z,50.04
2022-08-07T08:09:29.625Z,50.58
2022-08-07T08:11:59.707Z,49.85
2022-08-07T08:14:34.190Z,49.42
2022-08-07T08:17:55.654Z,48.33
2022-08-07T08:20:20.037Z,47.41
2022-08-07T08:23:08.138Z,47.64
2022-08-07T08:25:56.728Z,47.62
2022-08-07T08:28:38.082Z,48.52
2022-08-07T08:31:16.174Z,46.83
2022-08-07T08:33:49.359Z,46.22
2022-08-07T08:36:25.573Z,44.85
2022-08-07T08:39:02.011Z,44.74
2022-08-07T08:41:56.620Z,44.46
2022-08-07T08:44:33.238Z,44.63
2022-08-07T08:47:10.078Z,45.62
2022-08-07T08:49:57.190Z,45.57
2022-08-07T08:52:40.984Z,44.51
2022-08-07T08:55:53.339Z,44.21
2022-08-07T08:58:25.035Z,42.38
2022-08-07T09:01:14.673Z,41.21
2022-08-07T09:03:56.988Z,42.13
2022-08-07T09:06:47.847Z,42.25
2022-08-07T09:09:33.324Z,43.03
2022-08-07T09:12:30.859Z,41.07
2022-08-07T09:16:24.457Z,40.45
2022-08-07T09:18:23.881Z,39.87
2022-08-07T09:21:03.780Z,39.15
2022-08-07T09:24:34.203Z,38.69
2022-08-07T09:26:47.648Z,38.58
2022-08-07T09:30:06.113Z,39.24
2022-08-07T09:32:26.560Z,38.39
2022-08-07T09:36:02.769Z,38.88
2022-08-07T09:38:03.632Z,39.01
2022-08-07T09:40:53.426Z,39.65
2022-08-07T09:44:03.348Z,39.36
2022-08-07T09:47:49.845Z,40.06
2022-08-07T09:50:18.200Z,39.88
2022-08-07T09:52:36.315Z,39.56
2022-08-07T09:55:17.431Z,38.15
2022-08-07T09:58:38.436Z,37.45
2022-08-07T10:01:52.240Z,37.30
2022-08-07T10:04:33.308Z,37.08
2022-08-07T10:07:52.241Z,37.66
2022-08-07T10:10:48.316Z,38.03
2022-08-07T10:14:00.097Z,37.52
2022-08-07T10:17:14.165Z,34.77
2022-08-07T10:20:02.159Z,35.63
2022-08-07T10:22:45.217Z,35.20
2022-08-07T10:25:22.991Z,33.55
2022-08-07T10:28:12.920Z,34.42
2022-08-07T10:30:54.651Z,34.04
2022-08-07T10:34:05.557Z,32.41
2022-08-07T10:36:55.128Z,32.54
2022-08-07T10:39:42.198Z,31.99
2022-08-07T10:42:36.493Z,31.92
2022-08-07T10:45:16.818Z,33.34
2022-08-07T10:48:03.062Z,33.40
2022-08-07T10:50:35.468Z,32.74
2022-08-07T10:53:12.142Z,33.03
2022-08-07T10:55:53.788Z,33.85
2022-08-07T10:58:47.608Z,32.94
2022-08-07T11:01:52.069Z,31.57
2022-08-07T11:04:42.104Z,31.75
2022-08-07T11:07:56.879Z,31.54
2022-08-07T11:10:20.113Z,32.31
2022-08-07T11:13:02.259Z,32.98
2022-08-07T11:15:35.551Z,32.49
2022-08-07T11:18:15.953Z,31.55
2022-08-07T11:20:52.839Z,32.19
2022-08-07T11:23:30.772Z,31.02
2022-08-07T11:26:13.342Z,30.58
2022-08-07T11:28:55.186Z,30.84
2022-08-07T11:31:35.280Z,30.25
2022-08-07T11:34:17.803Z,30.11
2022-08-07T11:37:00.490Z,28.83
2022-08-07T11:40:00.357Z,29.72
2022-08-07T11:42:40.228Z,28.57
2022-08-07T11:45:23.820Z,28.13
2022-08-07T11:48:29.677Z,29.06
2022-08-07T11:51:41.575Z,28.46
2022-08-07T11:54:46.458Z,29.74
2022-08-07T11:57:57.790Z,29.17
2022-08-07T12:00:21.224Z,29.85
2022-08-07T12:03:45.674Z,29.68
2022-08-07T12:06:37.033Z,31.32
2022-08-07T12:09:16.236Z,30.92
2022-08-07T12:12:08.894Z,30.95
2022-08-07T12:14:56.074Z,31.40
2022-08-07T12:17:35.586Z,32.22
2022-08-07T12:20:19.978Z,32.34
2022-08-07T12:23:15.388Z,33.09
2022-08-07T12:26:22.419Z,33.76
2022-08-07T12:28:53.063Z,33.39
2022-08-07T12:31:37.651Z,33.62
2022-08-07T12:34:21.204Z,33.45
2022-08-07T12:36:52.797Z,33.19
2022-08-07T12:39:43.818Z,33.54
2022-08-07T12:42:14.198Z,34.29
2022-08-07T12:44:47.693Z,33.39
2022-08-07T12:47:26.974Z,31.86
2022-08-07T12:50:39.449Z,31.53
2022-08-07T12:53:01.056Z,32.27
2022-08-07T12:55:40.593Z,31.17
2022-08-07T12:58:13.594Z,31.00
2022-08-07T13:01:03.279Z,32.03
2022-08-07T13:04:03.156Z,31.53
2022-08-07T13:07:18.036Z,31.90
2022-08-07T13:10:38.009Z,32.41
2022-08-07T13:13:47.540Z,31.92
2022-08-07T13:16:17.340Z,32.55
2022-08-07T13:18:54.906Z,33.21
2022-08-07T13:21:37.347Z,33.39
2022-08-07T13:24:25.742Z,34.34
2022-08-07T13:27:02.872Z,34.04
2022-08-07T13:29:46.973Z,34.80
2022-08-07T13:32:31.753Z,34.88
2022-08-07T13:35:08.949Z,34.92
2022-08-07T13:37:59.063Z,34.87
2022-08-07T13:40:41.918Z,35.29
2022-08-07T13:43:13.573Z,35.52
2022-08-07T13:46:11.999Z,35.79
2022-08-07T13:48:38.899Z,35.79
2022-08-07T13:51:26.984Z,36.18
2022-08-07T13:54:03.316Z,36.46
2022-08-07T13:56:35.435Z,36.47
2022-08-07T13:59:12.768Z,36.94
2022-08-07T14:02:04.069Z,37.00
2022-08-07T14:04:37.968Z,35.57
2022-08-07T14:07:16.838Z,36.63
2022-08-07T14:10:08.424Z,36.79
2022-08-07T14:12:49.274Z,38.74
2022-08-07T14:15:31.918Z,40.76
2022-08-07T14:18:24.113Z,42.51
2022-08-07T14:21:08.420Z,44.65
2022-08-07T14:23:59.258Z,46.78
2022-08-07T14:30:07.229Z,48.51
2022-08-07T14:32:19.143Z,47.81
2022-08-07T14:34:49.662Z,48.15
2022-08-07T14:37:39.317Z,47.68
2022-08-07T14:40:18.149Z,47.28
2022-08-07T14:42:59.922Z,46.98
2022-08-07T14:45:49.447Z,46.92
2022-08-07T14:48:21.162Z,46.33
2022-08-07T14:50:54.167Z,46.71
2022-08-07T14:53:49.987Z,46.71
2022-08-07T14:56:30.372Z,46.51
2022-08-07T14:59:13.407Z,46.59
2022-08-07T15:04:31.625Z,48.19
2022-08-07T15:07:03.335Z,47.70
2022-08-07T15:09:58.998Z,47.31
2022-08-07T15:12:35.988Z,47.46
2022-08-07T15:15:09.278Z,47.13
2022-08-07T15:18:02.869Z,48.46
2022-08-07T15:20:54.600Z,48.83
2022-08-07T15:25:15.378Z,49.00
2022-08-07T15:26:28.700Z,49.84
2022-08-07T15:30:04.880Z,50.16
2022-08-07T15:34:50.641Z,50.08
2022-08-07T15:38:17.903Z,50.52
2022-08-07T15:40:34.722Z,49.61
2022-08-07T15:43:53.028Z,48.87
2022-08-07T15:46:32.460Z,48.26
2022-08-07T15:49:13.293Z,48.08
2022-08-07T15:54:34.273Z,47.90
2022-08-07T15:57:05.908Z,46.98
2022-08-07T15:59:38.993Z,46.76
2022-08-07T16:02:15.587Z,47.55
2022-08-07T16:04:44.772Z,47.48
2022-08-07T16:08:33.589Z,47.21
2022-08-07T16:10:14.662Z,47.15
2022-08-07T16:13:04.647Z,47.45
2022-08-07T16:15:57.724Z,47.73
2022-08-07T16:18:50.897Z,47.78
2022-08-07T16:22:03.394Z,48.50
2022-08-07T16:24:34.216Z,47.74
2022-08-07T16:27:18.648Z,48.45
2022-08-07T16:30:29.787Z,48.70
2022-08-07T16:34:03.219Z,48.29
2022-08-07T16:36:20.043Z,48.06
2022-08-07T16:39:04.147Z,47.82
2022-08-07T16:42:06.826Z,48.00
2022-08-07T16:45:15.265Z,48.31
2022-08-07T16:48:37.644Z,48.62
2022-08-07T16:52:01.613Z,49.12
2022-08-07T16:54:37.802Z,48.91
2022-08-07T16:58:01.115Z,50.21
2022-08-07T17:00:17.326Z,50.87
2022-08-07T17:03:17.979Z,52.53
2022-08-07T17:06:19.444Z,52.75
2022-08-07T17:12:04.434Z,55.36
2022-08-07T17:14:47.167Z,58.95
2022-08-07T17:17:44.333Z,60.64
2022-08-07T17:20:29.688Z,60.98
2022-08-07T17:23:08.852Z,61.92
2022-08-07T17:25:54.666Z,61.97
2022-08-07T17:28:31.059Z,61.71
2022-08-07T17:31:16.101Z,62.07
2022-08-07T17:34:15.051Z,60.93
2022-08-07T17:36:57.695Z,60.60
2022-08-07T17:39:57.623Z,60.02
2022-08-07T17:42:58.578Z,60.31
2022-08-07T17:45:38.778Z,60.67
2022-08-07T17:48:13.009Z,59.87
2022-08-07T17:50:54.205Z,60.28
2022-08-07T17:54:01.768Z,60.25
2022-08-07T17:56:28.531Z,59.56
2022-08-07T17:59:11.251Z,60.80
2022-08-07T18:01:51.447Z,60.04
2022-08-07T18:04:43.393Z,59.35
2022-08-07T18:07:34.388Z,60.14
2022-08-07T18:10:10.436Z,60.03
2022-08-07T18:13:20.614Z,58.91
2022-08-07T18:16:06.233Z,59.32
2022-08-07T18:21:00.984Z,58.65
2022-08-07T18:21:53.498Z,59.52
2022-08-07T18:24:34.241Z,58.38
2022-08-07T18:27:39.102Z,58.39
2022-08-07T18:30:31.429Z,58.24
2022-08-07T18:33:55.284Z,59.73
2022-08-07T18:36:33.789Z,60.55
2022-08-07T18:40:07.792Z,60.67
2022-08-07T18:42:13.031Z,60.48
2022-08-07T18:48:01.333Z,60.72
2022-08-07T18:50:46.265Z,61.01
2022-08-07T18:53:36.816Z,62.26
2022-08-07T18:56:15.997Z,63.47
2022-08-07T18:58:58.394Z,63.48
2022-08-07T19:02:20.147Z,62.88
2022-08-07T19:04:56.198Z,65.44
2022-08-07T19:07:34.398Z,68.00
2022-08-07T19:10:14.892Z,70.14
2022-08-07T19:12:58.233Z,72.56
2022-08-07T19:16:05.428Z,72.53
2022-08-07T19:18:45.047Z,70.64
2022-08-07T19:21:51.385Z,69.15
2022-08-07T19:24:31.011Z,68.12
2022-08-07T19:28:58.904Z,67.61
2022-08-07T19:31:05.680Z,66.12
2022-08-07T19:32:51.240Z,65.19
2022-08-07T19:35:24.638Z,64.37
2022-08-07T19:37:58.368Z,63.91
2022-08-07T19:40:31.165Z,63.82
2022-08-07T19:43:10.794Z,64.19
2022-08-07T19:46:05.615Z,63.90
2022-08-07T19:48:43.601Z,63.69
2022-08-07T19:51:20.112Z,63.26
2022-08-07T19:54:33.747Z,63.45
2022-08-07T19:57:24.911Z,63.05
2022-08-07T19:59:41.437Z,63.12
2022-08-07T20:02:19.795Z,63.37
2022-08-07T20:04:52.232Z,63.24
2022-08-07T20:07:45.796Z,63.34
2022-08-07T20:10:36.712Z,63.56
2022-08-07T20:13:23.271Z,63.23
2022-08-07T20:15:53.782Z,62.62
2022-08-07T20:18:33.537Z,62.28
2022-08-07T20:21:22.027Z,62.47
2022-08-07T20:23:57.997Z,62.80
2022-08-07T20:26:38.612Z,63.43
2022-08-07T20:29:47.019Z,64.01
2022-08-07T20:32:05.144Z,63.32
2022-08-07T20:34:50.098Z,63.05
2022-08-07T20:37:24.351Z,62.99
2022-08-07T20:40:02.449Z,63.42
2022-08-07T20:42:33.603Z,63.39
2022-08-07T20:45:04.486Z,63.94
2022-08-07T20:47:57.749Z,63.24
2022-08-07T20:50:30.407Z,64.03
2022-08-07T20:52:59.464Z,64.95
2022-08-07T20:55:32.212Z,65.18
2022-08-07T20:58:12.305Z,65.88
2022-08-07T21:00:56.143Z,65.43
2022-08-07T21:03:26.367Z,65.88
2022-08-07T21:06:00.929Z,65.62
2022-08-07T21:08:37.735Z,66.14
2022-08-07T21:11:14.233Z,66.72
2022-08-07T21:14:20.190Z,67.28
2022-08-07T21:16:56.229Z,67.22
2022-08-07T21:19:32.125Z,67.58
2022-08-07T21:22:19.828Z,67.19
2022-08-07T21:25:11.756Z,66.93
2022-08-07T21:27:53.683Z,67.48
2022-08-07T21:30:30.052Z,67.38
2022-08-07T21:33:08.122Z,67.09
2022-08-07T21:36:05.203Z,67.26
2022-08-07T21:38:34.940Z,67.73
2022-08-07T21:41:10.783Z,67.32
2022-08-07T21:43:56.118Z,67.18
2022-08-07T21:46:33.217Z,67.67
2022-08-07T21:49:14.975Z,67.35
2022-08-07T21:51:58.902Z,67.27
2022-08-07T21:54:45.908Z,67.51
2022-08-07T21:57:31.473Z,66.83
2022-08-07T22:00:22.895Z,66.42
2022-08-07T22:03:00.159Z,65.80
2022-08-07T22:05:48.226Z,64.67
2022-08-07T22:08:21.083Z,64.72
2022-08-07T22:10:55.969Z,64.38
2022-08-07T22:13:51.387Z,64.05
2022-08-07T22:16:39.867Z,63.24
2022-08-07T22:19:18.133Z,62.88
2022-08-07T22:22:10.637Z,63.14
2022-08-07T22:24:56.721Z,64.40
2022-08-07T22:27:33.979Z,64.27
2022-08-07T22:30:19.702Z,64.21
2022-08-07T22:33:04.378Z,64.01
2022-08-07T22:35:41.569Z,63.78
2022-08-07T22:38:24.106Z,64.22
2022-08-07T22:40:59.885Z,64.74
2022-08-07T22:43:35.282Z,64.57
2022-08-07T22:47:03.689Z,64.44
2022-08-07T22:49:39.606Z,64.01
2022-08-07T22:52:37.818Z,63.78
2022-08-07T22:55:30.977Z,63.35
2022-08-07T22:58:28.794Z,63.39
2022-08-07T23:01:18.965Z,63.28
2022-08-07T23:04:03.415Z,62.80
2022-08-07T23:06:58.634Z,63.00
2022-08-07T23:10:00.760Z,62.91
2022-08-07T23:12:45.396Z,62.92
2022-08-07T23:16:04.412Z,64.08
2022-08-07T23:18:22.378Z,63.74
2022-08-07T23:21:06.366Z,63.73
2022-08-07T23:24:11.674Z,63.90
2022-08-07T23:26:57.340Z,63.50
2022-08-07T23:30:37.670Z,63.79
2022-08-07T23:34:23.709Z,63.76
2022-08-07T23:36:17.231Z,64.34
2022-08-07T23:39:08.401Z,64.31
2022-08-07T23:42:04.559Z,64.81
2022-08-07T23:45:02.797Z,64.48
2022-08-07T23:47:47.942Z,64.24
2022-08-07T23:50:37.433Z,64.36
2022-08-07T23:53:22.901Z,64.93
2022-08-07T23:56:20.735Z,64.96
2022-08-07T23:59:00.314Z,65.33
